createdAt,value
2023-01-10T00:00:41.746Z,6.45
2023-01-10T00:03:10.226Z,3.50
2023-01-10T00:05:38.531Z,6.10
2023-01-10T00:08:09.230Z,3.80
2023-01-10T00:10:35.976Z,2.38
2023-01-10T00:13:23.379Z,2.55
2023-01-10T00:15:56.245Z,7.95
2023-01-10T00:18:23.123Z,4.97
2023-01-10T00:20:50.157Z,1.45
2023-01-10T00:23:19.987Z,3.13
2023-01-10T00:25:46.567Z,2.50
2023-01-10T00:28:13.119Z,1.48
2023-01-10T00:30:40.759Z,2.38
2023-01-10T00:33:08.883Z,1.05
2023-01-10T00:35:35.356Z,1.80
2023-01-10T00:38:05.824Z,3.38
2023-01-10T00:40:33.665Z,2.65
2023-01-10T00:43:19.387Z,3.80
2023-01-10T00:45:47.094Z,2.58
2023-01-10T00:48:14.696Z,5.30
2023-01-10T00:50:46.611Z,4.30
2023-01-10T00:53:13.184Z,1.45
2023-01-10T00:55:41.921Z,1.60
2023-01-10T00:58:11.678Z,1.10
2023-01-10T01:00:42.646Z,1.70
2023-01-10T01:03:09.319Z,0.85
2023-01-10T01:05:46.321Z,2.25
2023-01-10T01:08:14.440Z,1.20
2023-01-10T01:10:40.940Z,3.60
2023-01-10T01:13:13.742Z,2.47
2023-01-10T01:15:40.483Z,1.35
2023-01-10T01:18:07.955Z,1.92
2023-01-10T01:20:34.897Z,0.47
2023-01-10T01:23:01.327Z,0.77
2023-01-10T01:25:27.747Z,2.03
2023-01-10T01:27:57.319Z,3.20
2023-01-10T01:30:26.121Z,1.35
2023-01-10T01:32:57.431Z,0.38
2023-01-10T01:35:25.145Z,0.77
2023-01-10T01:37:51.615Z,0.20
2023-01-10T01:40:21.375Z,1.85
2023-01-10T01:42:48.884Z,5.40
2023-01-10T01:45:15.168Z,0.13
2023-01-10T01:47:51.855Z,0.90
2023-01-10T01:50:24.846Z,1.38
2023-01-10T01:52:54.955Z,0.40
2023-01-10T01:55:25.172Z,2.60
2023-01-10T01:57:54.518Z,0.68
2023-01-10T02:00:21.126Z,1.63
2023-01-10T02:03:02.100Z,0.13
2023-01-10T02:05:32.113Z,2.70
2023-01-10T02:08:02.747Z,2.28
2023-01-10T02:10:46.501Z,2.78
2023-01-10T02:13:15.166Z,0.65
2023-01-10T02:15:46.616Z,1.60
2023-01-10T02:18:13.882Z,1.40
2023-01-10T02:21:11.350Z,1.65
2023-01-10T02:24:09.962Z,0.20
2023-01-10T02:26:39.452Z,0.22
2023-01-10T02:29:40.039Z,2.60
2023-01-10T02:32:12.472Z,2.75
2023-01-10T02:35:08.736Z,4.43
2023-01-10T02:37:45.955Z,1.50
2023-01-10T02:40:28.281Z,1.70
2023-01-10T02:43:10.387Z,2.05
2023-01-10T02:46:02.768Z,1.42
2023-01-10T02:48:29.338Z,1.05
2023-01-10T02:51:00.069Z,0.90
2023-01-10T02:53:38.769Z,4.43
2023-01-10T02:56:35.708Z,1.45
2023-01-10T02:59:08.088Z,1.15
2023-01-10T03:04:20.951Z,0.63
2023-01-10T03:07:09.311Z,3.10
2023-01-10T03:09:48.035Z,1.73
2023-01-10T03:12:31.948Z,3.38
2023-01-10T03:15:00.625Z,5.43
2023-01-10T03:17:30.482Z,3.03
2023-01-10T03:20:02.706Z,2.30
2023-01-10T03:22:31.848Z,0.95
2023-01-10T03:25:00.796Z,2.13
2023-01-10T03:27:51.923Z,0.85
2023-01-10T03:30:46.975Z,3.83
2023-01-10T03:33:17.931Z,1.38
2023-01-10T03:36:04.361Z,0.45
2023-01-10T03:38:54.047Z,6.22
2023-01-10T03:41:41.134Z,3.13
2023-01-10T03:44:35.935Z,2.83
2023-01-10T03:47:10.260Z,8.70
2023-01-10T03:49:40.635Z,6.32
2023-01-10T03:52:09.591Z,5.78
2023-01-10T03:54:35.996Z,3.30
2023-01-10T03:57:05.681Z,7.15
2023-01-10T03:59:32.250Z,2.97
2023-01-10T04:02:01.407Z,7.82
2023-01-10T04:04:27.974Z,3.45
2023-01-10T04:06:54.539Z,1.67
2023-01-10T04:09:20.977Z,6.10
2023-01-10T04:11:47.498Z,5.78
2023-01-10T04:14:16.486Z,2.95
2023-01-10T04:16:42.967Z,7.00
2023-01-10T04:19:12.135Z,7.18
2023-01-10T04:21:38.601Z,7.47
2023-01-10T04:24:05.267Z,4.03
2023-01-10T04:26:31.724Z,5.60
2023-01-10T04:28:58.224Z,6.80
2023-01-10T04:31:24.797Z,9.98
2023-01-10T04:33:51.279Z,8.25
2023-01-10T04:36:17.734Z,11.98
2023-01-10T04:38:46.739Z,10.50
2023-01-10T04:41:13.271Z,10.13
2023-01-10T04:43:39.655Z,8.20
2023-01-10T04:46:06.171Z,15.13
2023-01-10T04:48:37.399Z,10.25
2023-01-10T04:51:04.315Z,5.38
2023-01-10T04:53:30.939Z,3.50
2023-01-10T04:56:04.063Z,6.72
2023-01-10T04:58:35.989Z,1.52
2023-01-10T05:01:30.945Z,5.93
2023-01-10T05:03:57.553Z,2.83
2023-01-10T05:06:25.036Z,1.98
2023-01-10T05:08:53.916Z,5.15
2023-01-10T05:11:20.322Z,4.03
2023-01-10T05:13:48.171Z,7.35
2023-01-10T05:16:14.933Z,7.75
2023-01-10T05:18:41.781Z,2.15
2023-01-10T05:21:10.745Z,1.92
2023-01-10T05:23:37.947Z,4.90
2023-01-10T05:26:16.255Z,4.28
2023-01-10T05:28:43.411Z,4.68
2023-01-10T05:31:13.226Z,6.38
2023-01-10T05:33:43.273Z,11.38
2023-01-10T05:36:09.748Z,4.85
2023-01-10T05:38:38.800Z,3.50
2023-01-10T05:41:05.291Z,7.05
2023-01-10T05:43:31.841Z,14.75
2023-01-10T05:45:58.293Z,11.27
2023-01-10T05:48:24.772Z,9.52
2023-01-10T05:50:53.169Z,7.57
2023-01-10T05:53:20.570Z,9.07
2023-01-10T05:55:57.219Z,8.32
2023-01-10T05:58:24.220Z,7.80
2023-01-10T06:00:51.075Z,10.32
2023-01-10T06:03:18.208Z,11.13
2023-01-10T06:05:45.798Z,14.15
2023-01-10T06:08:13.181Z,13.57
2023-01-10T06:10:42.063Z,16.23
2023-01-10T06:13:09.778Z,5.25
2023-01-10T06:15:36.906Z,5.78
2023-01-10T06:18:03.926Z,9.88
2023-01-10T06:20:30.671Z,11.77
2023-01-10T06:22:58.652Z,17.17
2023-01-10T06:25:25.321Z,8.18
2023-01-10T06:27:51.888Z,8.02
2023-01-10T06:30:18.609Z,11.98
2023-01-10T06:32:45.022Z,13.25
2023-01-10T06:35:11.605Z,15.98
2023-01-10T06:37:38.200Z,17.35
2023-01-10T06:40:07.357Z,11.75
2023-01-10T06:42:33.863Z,8.38
2023-01-10T06:45:00.296Z,11.90
2023-01-10T06:47:26.853Z,18.13
2023-01-10T06:49:53.417Z,9.30
2023-01-10T06:52:20.066Z,8.15
2023-01-10T06:54:46.919Z,16.17
2023-01-10T06:57:13.329Z,9.43
2023-01-10T06:59:39.815Z,11.13
2023-01-10T07:02:06.581Z,13.18
2023-01-10T07:04:33.185Z,11.13
2023-01-10T07:06:59.653Z,12.68
2023-01-10T07:09:26.105Z,13.73
2023-01-10T07:11:52.563Z,13.40
2023-01-10T07:14:19.295Z,8.70
2023-01-10T07:16:46.089Z,11.88
2023-01-10T07:19:13.577Z,10.18
2023-01-10T07:21:42.587Z,9.60
2023-01-10T07:24:11.900Z,26.77
2023-01-10T07:26:38.433Z,10.52
2023-01-10T07:29:05.126Z,8.80
2023-01-10T07:31:36.554Z,10.77
2023-01-10T07:34:03.308Z,10.17
2023-01-10T07:36:29.874Z,18.63
2023-01-10T07:38:58.913Z,13.57
2023-01-10T07:41:27.557Z,8.52
2023-01-10T07:43:53.968Z,11.10
2023-01-10T07:46:20.462Z,7.05
2023-01-10T07:48:47.086Z,15.77
2023-01-10T07:51:16.074Z,7.70
2023-01-10T07:53:42.549Z,10.10
2023-01-10T07:56:09.078Z,3.38
2023-01-10T07:58:38.235Z,14.98
2023-01-10T08:01:08.024Z,9.73
2023-01-10T08:03:35.430Z,4.47
2023-01-10T08:06:04.898Z,11.98
2023-01-10T08:08:32.562Z,15.13
2023-01-10T08:11:05.057Z,14.73
2023-01-10T08:13:32.793Z,14.82
2023-01-10T08:15:59.746Z,15.68
2023-01-10T08:18:26.610Z,10.27
2023-01-10T08:20:54.341Z,7.28
2023-01-10T08:23:21.408Z,11.00
2023-01-10T08:25:48.227Z,6.47
2023-01-10T08:28:19.769Z,8.77
2023-01-10T08:30:46.298Z,11.27
2023-01-10T08:33:12.738Z,19.92
2023-01-10T08:35:43.765Z,6.63
2023-01-10T08:38:11.465Z,16.65
2023-01-10T08:40:42.797Z,17.85
2023-01-10T08:43:13.059Z,5.68
2023-01-10T08:45:44.177Z,12.25
2023-01-10T08:48:10.757Z,14.43
2023-01-10T08:50:39.266Z,3.25
2023-01-10T08:53:05.816Z,5.60
2023-01-10T08:55:35.197Z,12.45
2023-01-10T08:58:05.139Z,13.20
2023-01-10T09:00:34.105Z,9.98
2023-01-10T09:03:00.633Z,13.10
2023-01-10T09:05:28.549Z,9.32
2023-01-10T09:08:00.223Z,12.88
2023-01-10T09:10:30.977Z,10.65
2023-01-10T09:13:01.985Z,24.95
2023-01-10T09:15:32.259Z,17.92
2023-01-10T09:18:01.168Z,9.10
2023-01-10T09:20:29.560Z,16.42
2023-01-10T09:23:01.072Z,14.07
2023-01-10T09:25:27.548Z,11.53
2023-01-10T09:27:59.116Z,14.95
2023-01-10T09:30:26.626Z,12.47
2023-01-10T09:32:54.655Z,7.93
2023-01-10T09:35:22.069Z,11.48
2023-01-10T09:37:48.880Z,16.00
2023-01-10T09:40:25.564Z,16.42
2023-01-10T09:43:20.124Z,11.45
2023-01-10T09:46:01.524Z,26.67
2023-01-10T09:48:42.718Z,14.95
2023-01-10T09:51:23.798Z,14.73
2023-01-10T09:53:57.760Z,20.60
2023-01-10T09:56:29.453Z,24.38
2023-01-10T09:58:58.429Z,17.27
2023-01-10T10:01:32.645Z,11.82
2023-01-10T10:04:18.835Z,20.13
2023-01-10T10:06:49.266Z,15.85
2023-01-10T10:09:25.458Z,8.75
2023-01-10T10:12:23.384Z,17.30
2023-01-10T10:14:57.735Z,13.07
2023-01-10T10:18:03.370Z,16.75
2023-01-10T10:20:47.712Z,10.60
2023-01-10T10:23:34.022Z,17.75
2023-01-10T10:26:18.195Z,8.15
2023-01-10T10:29:16.929Z,20.35
2023-01-10T10:32:07.345Z,9.55
2023-01-10T10:34:42.647Z,9.35
2023-01-10T10:37:17.247Z,16.33
2023-01-10T10:39:59.319Z,14.05
2023-01-10T10:42:35.034Z,24.30
2023-01-10T10:45:17.334Z,17.70
2023-01-10T10:47:50.164Z,20.83
2023-01-10T10:50:32.358Z,13.93
2023-01-10T10:53:01.977Z,20.63
2023-01-10T10:55:35.114Z,28.15
2023-01-10T10:58:04.909Z,19.10
2023-01-10T11:00:31.937Z,13.55
2023-01-10T11:03:16.848Z,9.70
2023-01-10T11:05:46.486Z,14.65
2023-01-10T11:08:17.022Z,19.33
2023-01-10T11:10:49.116Z,15.65
2023-01-10T11:14:08.153Z,15.38
2023-01-10T11:16:45.088Z,11.73
2023-01-10T11:19:25.075Z,22.40
2023-01-10T11:22:16.633Z,21.77
2023-01-10T11:24:55.307Z,24.45
2023-01-10T11:27:28.004Z,10.02
2023-01-10T11:30:01.938Z,14.68
2023-01-10T11:32:37.272Z,14.68
2023-01-10T11:35:09.854Z,6.57
2023-01-10T11:37:36.634Z,12.98
2023-01-10T11:40:27.450Z,18.35
2023-01-10T11:42:59.148Z,17.55
2023-01-10T11:45:32.312Z,17.65
2023-01-10T11:48:18.566Z,14.38
2023-01-10T11:50:50.655Z,11.70
2023-01-10T11:53:47.126Z,19.13
2023-01-10T11:56:23.262Z,18.38
2023-01-10T11:58:49.834Z,13.00
2023-01-10T12:01:37.528Z,17.27
2023-01-10T12:04:04.533Z,9.98
2023-01-10T12:06:32.961Z,22.67
2023-01-10T12:09:00.290Z,22.00
2023-01-10T12:11:32.751Z,17.02
2023-01-10T12:14:02.217Z,14.82
2023-01-10T12:16:31.333Z,25.65
2023-01-10T12:19:00.252Z,35.58
2023-01-10T12:21:30.588Z,22.63
2023-01-10T12:24:04.762Z,15.60
2023-01-10T12:26:33.030Z,16.73
2023-01-10T12:29:08.600Z,28.73
2023-01-10T12:31:37.554Z,12.85
2023-01-10T12:34:16.833Z,17.83
2023-01-10T12:37:00.958Z,14.65
2023-01-10T12:39:34.854Z,17.27
2023-01-10T12:42:25.977Z,24.48
2023-01-10T12:44:55.214Z,23.38
2023-01-10T12:47:34.634Z,22.95
2023-01-10T12:50:16.978Z,23.15
2023-01-10T12:52:48.627Z,15.20
2023-01-10T12:55:25.856Z,16.20
2023-01-10T12:57:58.353Z,17.98
2023-01-10T13:00:32.777Z,11.32
2023-01-10T13:03:07.040Z,19.40
2023-01-10T13:05:33.934Z,15.73
2023-01-10T13:08:13.126Z,11.50
2023-01-10T13:10:45.965Z,10.88
2023-01-10T13:13:42.167Z,12.98
2023-01-10T13:16:33.677Z,20.80
2023-01-10T13:19:12.123Z,12.60
2023-01-10T13:21:40.792Z,23.95
2023-01-10T13:24:28.550Z,21.08
2023-01-10T13:27:00.116Z,11.80
2023-01-10T13:29:42.499Z,14.10
2023-01-10T13:32:21.217Z,24.13
2023-01-10T13:34:48.312Z,18.48
2023-01-10T13:37:24.599Z,12.82
2023-01-10T13:39:54.853Z,13.90
2023-01-10T13:42:50.409Z,10.73
2023-01-10T13:45:18.844Z,9.38
2023-01-10T13:47:48.364Z,6.45
2023-01-10T13:50:33.959Z,10.85
2023-01-10T13:53:07.958Z,8.77
2023-01-10T13:55:43.060Z,9.45
2023-01-10T13:58:47.700Z,15.93
2023-01-10T14:01:59.735Z,19.35
2023-01-10T14:04:33.307Z,22.57
2023-01-10T14:07:03.403Z,16.15
2023-01-10T14:09:37.404Z,9.52
2023-01-10T14:12:09.214Z,11.10
2023-01-10T14:14:39.737Z,16.90
2023-01-10T14:17:26.475Z,9.25
2023-01-10T14:20:20.197Z,19.02
2023-01-10T14:23:03.937Z,11.48
2023-01-10T14:25:33.684Z,13.32
2023-01-10T14:28:05.812Z,5.60
2023-01-10T14:30:38.511Z,13.98
2023-01-10T14:33:14.026Z,14.18
2023-01-10T14:35:45.603Z,16.80
2023-01-10T14:38:20.948Z,19.53
2023-01-10T14:40:50.214Z,11.00
2023-01-10T14:43:24.261Z,15.57
2023-01-10T14:46:06.008Z,23.63
2023-01-10T14:48:45.635Z,28.37
2023-01-10T14:51:33.995Z,15.80
2023-01-10T14:54:10.893Z,18.65
2023-01-10T14:56:38.785Z,11.07
2023-01-10T14:59:20.381Z,15.07
2023-01-10T15:01:55.590Z,11.87
2023-01-10T15:04:24.417Z,18.13
2023-01-10T15:06:54.961Z,14.32
2023-01-10T15:09:22.064Z,21.85
2023-01-10T15:11:54.395Z,9.30
2023-01-10T15:16:52.784Z,10.38
2023-01-10T15:19:22.118Z,14.35
2023-01-10T15:21:51.558Z,17.15
2023-01-10T15:24:37.813Z,8.00
2023-01-10T15:27:15.251Z,23.50
2023-01-10T15:29:47.047Z,5.38
2023-01-10T15:32:37.016Z,10.30
2023-01-10T15:35:03.699Z,22.05
2023-01-10T15:37:35.992Z,10.40
2023-01-10T15:40:06.855Z,26.20
2023-01-10T15:42:35.253Z,15.70
2023-01-10T15:45:30.799Z,21.42
2023-01-10T15:48:03.601Z,16.25
2023-01-10T15:50:38.624Z,9.68
2023-01-10T15:53:07.114Z,10.55
2023-01-10T15:55:39.785Z,19.40
2023-01-10T15:58:29.094Z,27.63
2023-01-10T16:00:58.531Z,3.65
2023-01-10T16:03:30.653Z,8.00
2023-01-10T16:05:59.375Z,4.68
2023-01-10T16:08:30.553Z,14.52
2023-01-10T16:11:02.787Z,5.47
2023-01-10T16:13:32.637Z,19.33
2023-01-10T16:16:05.136Z,7.75
2023-01-10T16:18:31.932Z,9.75
2023-01-10T16:21:01.617Z,6.55
2023-01-10T16:23:34.307Z,5.78
2023-01-10T16:26:04.785Z,4.30
2023-01-10T16:28:36.052Z,3.25
2023-01-10T16:31:10.075Z,14.52
2023-01-10T16:33:37.585Z,7.45
2023-01-10T16:36:15.744Z,4.50
2023-01-10T16:38:42.666Z,5.82
2023-01-10T16:41:29.914Z,6.68
2023-01-10T16:43:56.388Z,12.43
2023-01-10T16:46:23.499Z,6.57
2023-01-10T16:48:52.587Z,4.63
2023-01-10T16:51:25.055Z,6.80
2023-01-10T16:56:23.718Z,8.65
2023-01-10T16:58:51.736Z,10.30
2023-01-10T17:01:24.156Z,5.75
2023-01-10T17:03:51.402Z,12.98
2023-01-10T17:06:17.863Z,8.05
2023-01-10T17:08:44.657Z,2.70
2023-01-10T17:11:26.527Z,9.80
2023-01-10T17:13:53.881Z,9.48
2023-01-10T17:16:20.500Z,2.20
2023-01-10T17:18:47.881Z,12.65
2023-01-10T17:21:16.685Z,5.53
2023-01-10T17:23:43.581Z,7.72
2023-01-10T17:26:11.799Z,5.90
2023-01-10T17:28:41.588Z,4.15
2023-01-10T17:31:08.893Z,2.00
2023-01-10T17:33:35.924Z,4.63
2023-01-10T17:36:02.715Z,5.55
2023-01-10T17:38:29.594Z,4.18
2023-01-10T17:41:01.946Z,4.22
2023-01-10T17:45:55.227Z,8.25
2023-01-10T17:48:21.768Z,9.02
2023-01-10T17:50:55.047Z,6.55
2023-01-10T17:53:21.558Z,3.75
2023-01-10T17:55:48.822Z,8.07
2023-01-10T17:58:16.660Z,6.72
2023-01-10T18:00:43.608Z,13.07
2023-01-10T18:03:10.155Z,4.60
2023-01-10T18:05:36.744Z,16.33
2023-01-10T18:08:05.465Z,24.58
2023-01-10T18:10:32.833Z,13.77
2023-01-10T18:13:03.483Z,11.80
2023-01-10T18:15:30.264Z,11.95
2023-01-10T18:17:58.950Z,5.25
2023-01-10T18:20:30.042Z,4.00
2023-01-10T18:23:15.209Z,5.20
2023-01-10T18:25:43.829Z,5.68
2023-01-10T18:28:10.253Z,5.25
2023-01-10T18:30:36.726Z,9.60
2023-01-10T18:33:03.277Z,15.38
2023-01-10T18:35:30.219Z,9.70
2023-01-10T18:37:57.490Z,4.75
2023-01-10T18:40:23.918Z,11.63
2023-01-10T18:42:54.152Z,7.97
2023-01-10T18:45:22.437Z,7.28
2023-01-10T18:47:55.320Z,7.95
2023-01-10T18:50:24.801Z,9.98
2023-01-10T18:52:51.488Z,10.80
2023-01-10T18:55:22.505Z,10.07
2023-01-10T18:57:53.507Z,8.38
2023-01-10T19:00:20.334Z,6.03
2023-01-10T19:02:49.412Z,5.85
2023-01-10T19:05:16.129Z,5.32
2023-01-10T19:07:42.695Z,8.00
2023-01-10T19:10:10.357Z,7.50
2023-01-10T19:12:41.381Z,7.75
2023-01-10T19:15:09.176Z,7.53
2023-01-10T19:17:40.527Z,7.25
2023-01-10T19:20:07.492Z,7.30
2023-01-10T19:22:33.922Z,9.45
2023-01-10T19:25:00.389Z,15.35
2023-01-10T19:27:27.710Z,7.32
2023-01-10T19:29:54.093Z,10.82
2023-01-10T19:32:20.800Z,5.65
2023-01-10T19:34:49.840Z,7.05
2023-01-10T19:37:16.330Z,9.88
2023-01-10T19:39:42.807Z,6.57
2023-01-10T19:42:13.981Z,6.95
2023-01-10T19:44:41.887Z,14.90
2023-01-10T19:47:11.480Z,3.95
2023-01-10T19:49:38.168Z,8.90
2023-01-10T19:52:04.676Z,8.30
2023-01-10T19:54:31.522Z,10.25
2023-01-10T19:56:58.433Z,12.77
2023-01-10T19:59:25.389Z,11.35
2023-01-10T20:01:55.059Z,12.55
2023-01-10T20:04:21.732Z,4.68
2023-01-10T20:06:48.256Z,11.45
2023-01-10T20:09:17.437Z,6.25
2023-01-10T20:11:46.813Z,10.63
2023-01-10T20:14:16.498Z,7.38
2023-01-10T20:16:43.468Z,8.90
2023-01-10T20:19:12.522Z,13.10
2023-01-10T20:21:40.776Z,9.70
2023-01-10T20:24:10.552Z,7.43
2023-01-10T20:26:39.877Z,7.43
2023-01-10T20:29:08.906Z,15.27
2023-01-10T20:31:35.607Z,8.27
2023-01-10T20:34:02.468Z,7.05
2023-01-10T20:36:29.799Z,14.38
2023-01-10T20:38:57.004Z,11.20
2023-01-10T20:41:28.884Z,11.30
2023-01-10T20:43:58.661Z,9.75
2023-01-10T20:46:33.974Z,7.35
2023-01-10T20:49:02.840Z,5.45
2023-01-10T20:51:35.203Z,8.75
2023-01-10T20:54:02.611Z,5.45
2023-01-10T20:56:30.439Z,7.07
2023-01-10T20:58:57.123Z,29.50
2023-01-10T21:01:34.243Z,4.55
2023-01-10T21:04:05.283Z,17.55
2023-01-10T21:06:37.174Z,7.75
2023-01-10T21:09:04.810Z,12.15
2023-01-10T21:11:44.433Z,5.47
2023-01-10T21:14:20.498Z,10.75
2023-01-10T21:16:49.211Z,4.50
2023-01-10T21:19:15.743Z,6.95
2023-01-10T21:21:43.425Z,9.85
2023-01-10T21:24:10.060Z,17.63
2023-01-10T21:26:36.476Z,6.00
2023-01-10T21:29:03.039Z,10.05
2023-01-10T21:31:29.603Z,6.78
2023-01-10T21:33:56.188Z,9.50
2023-01-10T21:36:22.542Z,6.43
2023-01-10T21:38:49.587Z,5.22
2023-01-10T21:41:37.019Z,6.85
2023-01-10T21:44:04.903Z,6.43
2023-01-10T21:46:31.685Z,10.95
2023-01-10T21:48:58.169Z,4.85
2023-01-10T21:51:24.909Z,5.00
2023-01-10T21:53:51.278Z,7.25
2023-01-10T21:56:17.817Z,4.50
2023-01-10T21:58:44.294Z,8.15
2023-01-10T22:01:10.752Z,9.30
2023-01-10T22:03:37.202Z,8.20
2023-01-10T22:06:03.799Z,13.70
2023-01-10T22:08:33.295Z,6.50
2023-01-10T22:10:59.835Z,7.40
2023-01-10T22:13:26.357Z,5.38
2023-01-10T22:16:02.753Z,2.15
2023-01-10T22:18:31.747Z,3.58
2023-01-10T22:20:58.877Z,3.92
2023-01-10T22:23:28.221Z,7.72
2023-01-10T22:26:01.658Z,8.10
2023-01-10T22:28:28.759Z,3.78
2023-01-10T22:30:55.769Z,9.05
2023-01-10T22:33:29.912Z,8.13
2023-01-10T22:35:56.289Z,2.83
2023-01-10T22:38:22.804Z,1.85
2023-01-10T22:40:49.275Z,5.10
2023-01-10T22:43:18.790Z,9.93
2023-01-10T22:45:49.840Z,2.38
2023-01-10T22:48:19.334Z,4.20
2023-01-10T22:50:49.115Z,8.30
2023-01-10T22:53:15.718Z,5.28
2023-01-10T22:55:42.131Z,9.18
2023-01-10T22:58:08.498Z,4.22
2023-01-10T23:00:35.002Z,11.65
2023-01-10T23:03:01.499Z,2.80
2023-01-10T23:05:27.968Z,3.00
2023-01-10T23:07:54.500Z,1.17
2023-01-10T23:10:30.760Z,11.38
2023-01-10T23:12:57.960Z,3.25
2023-01-10T23:15:24.759Z,4.80
2023-01-10T23:17:51.208Z,3.15
2023-01-10T23:20:17.729Z,1.85
2023-01-10T23:22:46.666Z,1.52
2023-01-10T23:25:13.485Z,1.42
2023-01-10T23:27:39.890Z,2.63
2023-01-10T23:30:08.359Z,1.65
2023-01-10T23:32:34.965Z,6.57
2023-01-10T23:35:01.482Z,2.85
2023-01-10T23:37:27.931Z,4.60
2023-01-10T23:39:54.469Z,5.55
2023-01-10T23:42:21.035Z,1.33
2023-01-10T23:44:47.562Z,1.52
2023-01-10T23:47:14.164Z,1.70
2023-01-10T23:49:40.602Z,5.30
2023-01-10T23:52:07.079Z,6.47
2023-01-10T23:54:33.652Z,1.40
2023-01-10T23:57:00.074Z,10.32
2023-01-10T23:59:26.827Z,1.52
